createdAt,value
2022-12-22T00:02:35.851Z,41.47
2022-12-22T00:05:30.173Z,55.70
2022-12-22T00:08:15.456Z,50.70
2022-12-22T00:11:01.984Z,54.03
2022-12-22T00:13:47.223Z,45.60
2022-12-22T00:16:32.900Z,54.77
2022-12-22T00:19:18.542Z,52.20
2022-12-22T00:22:04.230Z,56.07
2022-12-22T00:24:49.656Z,47.30
2022-12-22T00:27:45.375Z,46.93
2022-12-22T00:30:32.836Z,41.40
2022-12-22T00:33:19.142Z,50.67
2022-12-22T00:36:04.642Z,55.43
2022-12-22T00:38:49.961Z,41.53
2022-12-22T00:41:35.264Z,48.07
2022-12-22T00:44:21.510Z,45.87
2022-12-22T00:47:07.029Z,50.37
2022-12-22T00:49:53.786Z,47.43
2022-12-22T00:52:40.239Z,55.73
2022-12-22T00:55:31.777Z,57.80
2022-12-22T00:58:17.973Z,64.03
2022-12-22T01:01:03.995Z,49.70
2022-12-22T01:03:49.262Z,50.17
2022-12-22T01:06:34.752Z,42.43
2022-12-22T01:09:20.206Z,54.10
2022-12-22T01:12:05.430Z,60.03
2022-12-22T01:14:50.692Z,51.50
2022-12-22T01:17:36.592Z,54.30
2022-12-22T01:20:22.675Z,53.90
2022-12-22T01:23:07.855Z,40.10
2022-12-22T01:25:53.025Z,49.60
2022-12-22T01:28:38.240Z,55.50
2022-12-22T01:31:35.600Z,47.33
2022-12-22T01:34:21.928Z,45.90
2022-12-22T01:37:07.120Z,52.33
2022-12-22T01:39:52.590Z,47.90
2022-12-22T01:42:37.738Z,42.57
2022-12-22T01:45:37.559Z,53.63
2022-12-22T01:48:22.907Z,47.97
2022-12-22T01:51:08.819Z,47.40
2022-12-22T01:53:54.110Z,58.33
2022-12-22T01:56:40.187Z,48.03
2022-12-22T01:59:25.920Z,47.83
2022-12-22T02:02:11.533Z,41.50
2022-12-22T02:05:01.407Z,47.67
2022-12-22T02:08:05.480Z,50.07
2022-12-22T02:11:09.919Z,45.90
2022-12-22T02:14:03.437Z,48.40
2022-12-22T02:16:56.313Z,46.20
2022-12-22T02:20:00.191Z,55.37
2022-12-22T02:22:53.294Z,37.87
2022-12-22T02:25:44.560Z,43.13
2022-12-22T02:28:31.956Z,35.77
2022-12-22T02:31:17.639Z,50.57
2022-12-22T02:34:03.189Z,42.10
2022-12-22T02:37:04.722Z,41.33
2022-12-22T02:40:00.398Z,43.43
2022-12-22T02:42:52.837Z,49.27
2022-12-22T02:45:47.787Z,52.90
2022-12-22T02:48:38.299Z,45.70
2022-12-22T02:51:28.433Z,44.13
2022-12-22T02:54:14.747Z,41.80
2022-12-22T02:57:00.839Z,49.20
2022-12-22T02:59:46.371Z,32.43
2022-12-22T03:02:32.766Z,32.03
2022-12-22T03:05:18.213Z,30.80
2022-12-22T03:08:08.291Z,27.20
2022-12-22T03:10:54.327Z,34.00
2022-12-22T03:13:39.827Z,32.37
2022-12-22T03:16:25.446Z,26.60
2022-12-22T03:19:11.712Z,25.37
2022-12-22T03:21:57.215Z,30.57
2022-12-22T03:24:42.690Z,26.20
2022-12-22T03:27:10.096Z,31.23
2022-12-22T03:29:37.435Z,27.73
2022-12-22T03:32:04.871Z,40.90
2022-12-22T03:34:32.794Z,54.27
2022-12-22T03:37:00.033Z,34.30
2022-12-22T03:39:27.269Z,27.53
2022-12-22T03:42:12.592Z,31.00
2022-12-22T03:44:57.767Z,26.80
2022-12-22T03:47:25.030Z,29.00
2022-12-22T03:49:52.961Z,29.07
2022-12-22T03:52:20.215Z,23.70
2022-12-22T03:54:47.482Z,28.63
2022-12-22T03:57:14.782Z,33.37
2022-12-22T03:59:42.023Z,27.20
2022-12-22T04:02:09.421Z,33.87
2022-12-22T04:04:36.717Z,27.80
2022-12-22T04:07:04.653Z,24.90
2022-12-22T04:09:31.898Z,28.20
2022-12-22T04:12:17.476Z,24.07
2022-12-22T04:14:44.727Z,29.77
2022-12-22T04:17:12.022Z,29.00
2022-12-22T04:19:39.290Z,22.03
2022-12-22T04:22:07.235Z,27.20
2022-12-22T04:24:34.526Z,26.97
2022-12-22T04:27:01.765Z,31.97
2022-12-22T04:29:28.997Z,25.00
2022-12-22T04:31:56.303Z,29.70
2022-12-22T04:34:23.622Z,26.30
2022-12-22T04:36:50.876Z,29.77
2022-12-22T04:39:18.998Z,26.20
2022-12-22T04:41:46.307Z,25.90
2022-12-22T04:44:13.566Z,27.80
2022-12-22T04:46:40.842Z,27.17
2022-12-22T04:49:08.191Z,25.30
2022-12-22T04:51:35.407Z,26.60
2022-12-22T04:54:02.732Z,27.03
2022-12-22T04:56:30.643Z,25.10
2022-12-22T04:58:57.916Z,30.53
2022-12-22T05:01:25.546Z,27.27
2022-12-22T05:03:52.899Z,29.13
2022-12-22T05:06:20.160Z,24.90
2022-12-22T05:08:47.431Z,30.80
2022-12-22T05:11:14.662Z,28.67
2022-12-22T05:13:42.845Z,23.73
2022-12-22T05:16:12.270Z,24.60
2022-12-22T05:18:41.181Z,30.33
2022-12-22T05:21:09.884Z,24.40
2022-12-22T05:23:37.156Z,24.57
2022-12-22T05:26:04.653Z,31.20
2022-12-22T05:28:31.948Z,30.87
2022-12-22T05:31:04.636Z,23.43
2022-12-22T05:33:32.038Z,28.17
2022-12-22T05:35:59.300Z,28.53
2022-12-22T05:38:26.792Z,33.17
2022-12-22T05:40:59.771Z,24.20
2022-12-22T05:43:28.949Z,26.60
2022-12-22T05:45:57.814Z,27.13
2022-12-22T05:48:30.895Z,27.20
2022-12-22T05:51:01.183Z,34.40
2022-12-22T05:53:28.486Z,25.20
2022-12-22T05:55:57.361Z,27.03
2022-12-22T05:58:24.722Z,27.90
2022-12-22T06:00:52.007Z,27.13
2022-12-22T06:03:19.340Z,24.80
2022-12-22T06:05:50.048Z,23.33
2022-12-22T06:08:17.249Z,30.07
2022-12-22T06:10:44.574Z,31.93
2022-12-22T06:13:11.814Z,24.27
2022-12-22T06:15:39.106Z,28.30
2022-12-22T06:18:07.055Z,27.90
2022-12-22T06:20:34.426Z,24.50
2022-12-22T06:23:02.369Z,25.53
2022-12-22T06:25:29.768Z,25.93
2022-12-22T06:27:57.008Z,31.93
2022-12-22T06:30:31.020Z,38.67
2022-12-22T06:33:00.543Z,36.87
2022-12-22T06:35:28.001Z,29.60
2022-12-22T06:37:55.274Z,35.67
2022-12-22T06:40:23.212Z,24.40
2022-12-22T06:43:09.106Z,28.23
2022-12-22T06:45:38.297Z,30.63
2022-12-22T06:48:06.438Z,29.03
2022-12-22T06:50:34.118Z,24.93
2022-12-22T06:53:01.724Z,22.57
2022-12-22T06:55:29.736Z,30.57
2022-12-22T06:57:56.957Z,27.83
2022-12-22T07:00:24.693Z,26.70
2022-12-22T07:02:52.123Z,29.07
2022-12-22T07:05:19.634Z,31.97
2022-12-22T07:07:46.917Z,29.30
2022-12-22T07:10:14.223Z,27.30
2022-12-22T07:12:42.201Z,21.03
2022-12-22T07:15:10.497Z,23.90
2022-12-22T07:17:40.754Z,26.83
2022-12-22T07:20:09.222Z,29.50
2022-12-22T07:22:36.694Z,31.80
2022-12-22T07:25:04.382Z,24.40
2022-12-22T07:27:31.605Z,23.40
2022-12-22T07:29:59.489Z,21.87
2022-12-22T07:32:26.767Z,33.50
2022-12-22T07:34:54.009Z,22.87
2022-12-22T07:37:21.237Z,24.00
2022-12-22T07:39:48.492Z,26.03
2022-12-22T07:42:33.927Z,24.33
2022-12-22T07:45:01.868Z,29.60
2022-12-22T07:47:35.024Z,26.83
2022-12-22T07:50:21.379Z,24.87
2022-12-22T07:52:48.642Z,21.87
2022-12-22T07:55:15.968Z,30.30
2022-12-22T07:57:43.173Z,23.83
2022-12-22T08:00:12.953Z,24.73
2022-12-22T08:02:40.545Z,23.57
2022-12-22T08:05:09.158Z,25.53
2022-12-22T08:07:36.631Z,30.23
2022-12-22T08:10:04.274Z,26.17
2022-12-22T08:12:31.796Z,22.80
2022-12-22T08:14:59.135Z,21.40
2022-12-22T08:17:28.238Z,21.53
2022-12-22T08:19:56.233Z,24.93
2022-12-22T08:22:24.321Z,23.33
2022-12-22T08:24:51.756Z,25.87
2022-12-22T08:27:26.201Z,18.90
2022-12-22T08:29:56.870Z,22.73
2022-12-22T08:32:24.140Z,22.50
2022-12-22T08:34:52.937Z,19.23
2022-12-22T08:37:24.622Z,18.70
2022-12-22T08:39:55.809Z,21.93
2022-12-22T08:42:24.651Z,25.60
2022-12-22T08:44:52.637Z,13.90
2022-12-22T08:47:20.278Z,15.90
2022-12-22T08:49:47.646Z,16.13
2022-12-22T08:52:18.744Z,15.20
2022-12-22T08:54:46.719Z,17.50
2022-12-22T08:57:13.959Z,16.80
2022-12-22T08:59:41.210Z,17.50
2022-12-22T09:02:08.530Z,23.43
2022-12-22T09:04:36.209Z,14.47
2022-12-22T09:07:03.515Z,14.47
2022-12-22T09:09:33.650Z,11.47
2022-12-22T09:12:02.106Z,10.43
2022-12-22T09:14:30.115Z,12.30
2022-12-22T09:16:57.468Z,13.60
2022-12-22T09:19:24.763Z,11.23
2022-12-22T09:21:52.009Z,11.67
2022-12-22T09:24:19.474Z,12.20
2022-12-22T09:26:47.444Z,14.37
2022-12-22T09:29:14.888Z,11.30
2022-12-22T09:31:43.037Z,17.63
2022-12-22T09:34:16.891Z,13.57
2022-12-22T09:36:44.945Z,11.90
2022-12-22T09:39:12.391Z,18.60
2022-12-22T09:41:45.471Z,19.13
2022-12-22T09:44:21.225Z,19.60
2022-12-22T09:46:49.196Z,9.50
2022-12-22T09:49:18.210Z,14.30
2022-12-22T09:51:48.688Z,14.03
2022-12-22T09:54:16.307Z,10.00
2022-12-22T09:56:43.794Z,10.20
2022-12-22T09:59:14.041Z,11.23
2022-12-22T10:02:00.208Z,10.70
2022-12-22T10:04:48.058Z,9.77
2022-12-22T10:07:25.547Z,12.57
2022-12-22T10:09:52.868Z,29.53
2022-12-22T10:12:22.162Z,16.60
2022-12-22T10:14:51.789Z,19.50
2022-12-22T10:17:21.954Z,27.03
2022-12-22T10:19:51.267Z,15.77
2022-12-22T10:22:28.329Z,24.47
2022-12-22T10:24:56.315Z,14.47
2022-12-22T10:27:29.234Z,22.63
2022-12-22T10:30:19.278Z,13.47
2022-12-22T10:33:06.013Z,15.60
2022-12-22T10:35:48.530Z,7.63
2022-12-22T10:38:22.317Z,13.37
2022-12-22T10:40:55.321Z,8.80
2022-12-22T10:43:29.809Z,7.40
2022-12-22T10:45:58.577Z,9.47
2022-12-22T10:48:28.381Z,16.03
2022-12-22T10:50:56.994Z,8.10
2022-12-22T10:53:44.005Z,2.50
2022-12-22T10:56:21.708Z,5.33
2022-12-22T10:58:51.152Z,12.00
2022-12-22T11:01:26.879Z,7.60
2022-12-22T11:03:54.428Z,8.53
2022-12-22T11:06:21.932Z,5.27
2022-12-22T11:08:51.871Z,2.47
2022-12-22T11:11:35.844Z,2.63
2022-12-22T11:14:12.552Z,3.53
2022-12-22T11:16:47.313Z,1.63
2022-12-22T11:19:38.277Z,1.33
2022-12-22T11:22:16.772Z,1.50
2022-12-22T11:24:57.516Z,1.30
2022-12-22T11:27:44.019Z,3.20
2022-12-22T11:30:16.166Z,1.20
2022-12-22T11:33:01.451Z,25.63
2022-12-22T11:35:42.036Z,2.40
2022-12-22T11:38:20.032Z,2.70
2022-12-22T11:40:52.365Z,2.00
2022-12-22T11:43:25.471Z,5.90
2022-12-22T11:46:02.246Z,1.50
2022-12-22T11:48:56.667Z,1.47
2022-12-22T11:51:35.892Z,2.33
2022-12-22T11:54:33.987Z,3.77
2022-12-22T11:57:11.549Z,1.23
2022-12-22T11:59:46.635Z,2.10
2022-12-22T12:02:46.529Z,2.60
2022-12-22T12:05:47.298Z,2.00
2022-12-22T12:08:26.072Z,2.77
2022-12-22T12:11:01.159Z,1.00
2022-12-22T12:13:37.915Z,1.37
2022-12-22T12:16:17.856Z,1.40
2022-12-22T12:19:10.558Z,3.17
2022-12-22T12:21:45.531Z,0.90
2022-12-22T12:24:33.985Z,1.80
2022-12-22T12:27:08.358Z,1.50
2022-12-22T12:29:40.594Z,1.50
2022-12-22T12:32:16.079Z,2.10
2022-12-22T12:34:49.127Z,4.37
2022-12-22T12:37:26.636Z,3.57
2022-12-22T12:40:02.529Z,2.33
2022-12-22T12:42:32.399Z,2.63
2022-12-22T12:45:01.634Z,1.10
2022-12-22T12:47:30.650Z,1.70
2022-12-22T12:50:20.414Z,2.07
2022-12-22T12:53:16.097Z,2.10
2022-12-22T12:55:59.021Z,6.20
2022-12-22T12:58:52.149Z,1.90
2022-12-22T13:01:53.788Z,1.93
2022-12-22T13:05:11.260Z,1.10
2022-12-22T13:08:21.124Z,4.93
2022-12-22T13:12:10.549Z,4.97
2022-12-22T13:14:54.944Z,4.00
2022-12-22T13:17:41.268Z,1.40
2022-12-22T13:20:14.551Z,1.00
2022-12-22T13:22:43.426Z,1.37
2022-12-22T13:25:15.146Z,2.37
2022-12-22T13:27:43.544Z,2.10
2022-12-22T13:30:15.046Z,3.47
2022-12-22T13:32:43.524Z,1.30
2022-12-22T13:35:38.679Z,1.33
2022-12-22T13:38:06.234Z,3.33
2022-12-22T13:40:41.707Z,2.13
2022-12-22T13:43:14.666Z,4.30
2022-12-22T13:45:43.773Z,4.50
2022-12-22T13:48:15.586Z,1.63
2022-12-22T13:50:45.894Z,7.27
2022-12-22T13:53:42.300Z,0.80
2022-12-22T13:56:08.492Z,2.40
2022-12-22T13:58:38.898Z,1.90
2022-12-22T14:01:16.631Z,2.40
2022-12-22T14:04:00.362Z,3.10
2022-12-22T14:06:30.890Z,4.80
2022-12-22T14:09:11.469Z,2.53
2022-12-22T14:11:40.954Z,2.23
2022-12-22T14:14:17.562Z,3.67
2022-12-22T14:16:47.580Z,11.43
2022-12-22T14:19:16.853Z,2.60
2022-12-22T14:21:46.399Z,1.40
2022-12-22T14:24:21.359Z,5.77
2022-12-22T14:26:49.860Z,3.37
2022-12-22T14:29:21.596Z,1.57
2022-12-22T14:31:56.378Z,2.87
2022-12-22T14:34:28.438Z,3.97
2022-12-22T14:36:57.536Z,4.00
2022-12-22T14:39:27.421Z,6.37
2022-12-22T14:41:56.756Z,5.97
2022-12-22T14:44:27.740Z,2.80
2022-12-22T14:47:15.752Z,2.23
2022-12-22T14:49:49.736Z,6.17
2022-12-22T14:52:26.241Z,2.90
2022-12-22T14:54:55.088Z,2.63
2022-12-22T14:57:30.551Z,8.07
2022-12-22T15:00:05.355Z,2.67
2022-12-22T15:02:39.093Z,3.20
2022-12-22T15:05:10.265Z,4.50
2022-12-22T15:10:41.266Z,3.17
2022-12-22T15:13:15.325Z,3.00
2022-12-22T15:15:43.651Z,2.00
2022-12-22T15:18:13.863Z,2.70
2022-12-22T15:20:41.201Z,1.30
2022-12-22T15:23:16.142Z,1.10
2022-12-22T15:25:43.811Z,6.40
2022-12-22T15:28:11.077Z,4.10
2022-12-22T15:30:38.563Z,0.90
2022-12-22T15:33:12.920Z,1.07
2022-12-22T15:35:40.856Z,1.47
2022-12-22T15:38:12.436Z,3.80
2022-12-22T15:40:39.662Z,3.50
2022-12-22T15:43:17.239Z,1.60
2022-12-22T15:45:55.187Z,7.03
2022-12-22T15:48:26.339Z,12.73
2022-12-22T15:50:55.287Z,2.00
2022-12-22T15:53:23.153Z,2.40
2022-12-22T15:55:53.959Z,2.33
2022-12-22T15:58:23.798Z,2.87
2022-12-22T16:00:51.108Z,1.60
2022-12-22T16:03:18.484Z,1.50
2022-12-22T16:05:46.920Z,3.80
2022-12-22T16:08:18.378Z,1.40
2022-12-22T16:10:46.758Z,3.60
2022-12-22T16:13:15.750Z,1.90
2022-12-22T16:15:43.380Z,2.40
2022-12-22T16:18:12.522Z,3.37
2022-12-22T16:20:42.131Z,3.50
2022-12-22T16:23:16.378Z,3.53
2022-12-22T16:25:45.803Z,4.07
2022-12-22T16:28:17.079Z,4.07
2022-12-22T16:30:44.549Z,5.40
2022-12-22T16:33:12.376Z,5.10
2022-12-22T16:35:39.930Z,5.83
2022-12-22T16:38:10.572Z,10.20
2022-12-22T16:40:43.890Z,9.10
2022-12-22T16:46:04.978Z,10.03
2022-12-22T16:48:38.311Z,9.27
2022-12-22T16:51:06.767Z,8.67
2022-12-22T16:53:34.086Z,6.90
2022-12-22T16:56:02.187Z,6.77
2022-12-22T16:58:29.477Z,11.07
2022-12-22T17:00:56.897Z,9.37
2022-12-22T17:03:27.519Z,11.50
2022-12-22T17:05:58.562Z,12.60
2022-12-22T17:08:28.752Z,6.93
2022-12-22T17:10:57.677Z,14.37
2022-12-22T17:13:26.258Z,15.00
2022-12-22T17:15:53.593Z,14.93
2022-12-22T17:18:23.663Z,11.87
2022-12-22T17:20:54.906Z,15.87
2022-12-22T17:23:31.952Z,12.93
2022-12-22T17:26:00.522Z,15.17
2022-12-22T17:28:29.252Z,14.90
2022-12-22T17:30:56.715Z,16.90
2022-12-22T17:33:24.361Z,16.47
2022-12-22T17:35:52.432Z,17.67
2022-12-22T17:38:22.735Z,12.33
2022-12-22T17:40:53.594Z,21.40
2022-12-22T17:43:39.083Z,21.97
2022-12-22T17:46:14.656Z,18.87
2022-12-22T17:48:42.037Z,18.77
2022-12-22T17:51:17.326Z,22.60
2022-12-22T17:53:45.946Z,18.73
2022-12-22T17:56:18.082Z,20.43
2022-12-22T17:58:48.660Z,27.50
2022-12-22T18:01:26.410Z,24.60
2022-12-22T18:03:54.500Z,26.30
2022-12-22T18:06:24.166Z,21.87
2022-12-22T18:08:53.562Z,28.27
2022-12-22T18:11:21.178Z,28.87
2022-12-22T18:13:48.981Z,37.73
2022-12-22T18:16:18.045Z,50.67
2022-12-22T18:18:46.101Z,32.53
2022-12-22T18:21:18.717Z,33.57
2022-12-22T18:23:50.352Z,24.03
2022-12-22T18:26:22.068Z,24.93
2022-12-22T18:28:50.223Z,23.40
2022-12-22T18:31:17.936Z,21.20
2022-12-22T18:33:46.008Z,23.60
2022-12-22T18:36:17.258Z,25.00
2022-12-22T18:38:46.124Z,25.93
2022-12-22T18:41:19.484Z,29.97
2022-12-22T18:43:46.761Z,38.17
2022-12-22T18:46:14.340Z,44.53
2022-12-22T18:48:41.812Z,60.87
2022-12-22T18:51:18.518Z,31.97
2022-12-22T18:53:46.140Z,34.50
2022-12-22T18:56:14.057Z,37.63
2022-12-22T18:58:41.666Z,34.70
2022-12-22T19:01:20.202Z,30.37
2022-12-22T19:03:48.477Z,33.43
2022-12-22T19:06:18.920Z,28.43
2022-12-22T19:08:47.500Z,22.93
2022-12-22T19:11:16.672Z,29.53
2022-12-22T19:13:46.309Z,25.10
2022-12-22T19:16:15.805Z,26.00
2022-12-22T19:18:44.126Z,27.87
2022-12-22T19:21:13.603Z,21.83
2022-12-22T19:23:41.537Z,23.50
2022-12-22T19:26:20.036Z,24.30
2022-12-22T19:28:49.301Z,24.83
2022-12-22T19:31:21.814Z,28.40
2022-12-22T19:33:50.499Z,19.30
2022-12-22T19:36:21.052Z,31.27
2022-12-22T19:38:51.111Z,33.10
2022-12-22T19:41:28.895Z,65.87
2022-12-22T19:43:56.384Z,93.77
2022-12-22T19:46:25.753Z,76.67
2022-12-22T19:48:53.086Z,486.97
2022-12-22T19:51:20.425Z,333.83
2022-12-22T19:53:48.295Z,143.07
2022-12-22T19:56:23.783Z,131.70
2022-12-22T19:58:51.884Z,130.97
2022-12-22T20:01:19.581Z,104.43
2022-12-22T20:03:46.979Z,37.60
2022-12-22T20:06:14.566Z,32.50
2022-12-22T20:08:41.891Z,38.93
2022-12-22T20:11:14.891Z,53.03
2022-12-22T20:13:42.554Z,32.70
2022-12-22T20:16:12.687Z,34.90
2022-12-22T20:18:40.138Z,36.60
2022-12-22T20:21:11.109Z,24.47
2022-12-22T20:23:39.081Z,34.07
2022-12-22T20:26:08.629Z,28.17
2022-12-22T20:28:38.698Z,37.17
2022-12-22T20:31:07.987Z,31.60
2022-12-22T20:33:35.425Z,29.30
2022-12-22T20:36:04.759Z,31.00
2022-12-22T20:38:34.256Z,35.03
2022-12-22T20:41:02.505Z,30.70
2022-12-22T20:43:31.052Z,30.87
2022-12-22T20:46:02.244Z,31.33
2022-12-22T20:48:33.998Z,27.63
2022-12-22T20:51:01.890Z,27.10
2022-12-22T20:53:29.543Z,26.10
2022-12-22T20:55:57.505Z,30.03
2022-12-22T20:58:26.808Z,32.53
2022-12-22T21:00:57.326Z,30.13
2022-12-22T21:03:26.048Z,43.07
2022-12-22T21:05:53.950Z,36.40
2022-12-22T21:08:24.464Z,32.10
2022-12-22T21:10:53.298Z,31.93
2022-12-22T21:13:21.509Z,34.20
2022-12-22T21:15:50.756Z,38.63
2022-12-22T21:18:21.055Z,36.63
2022-12-22T21:20:50.566Z,37.43
2022-12-22T21:23:17.970Z,38.47
2022-12-22T21:25:48.644Z,35.47
2022-12-22T21:28:20.999Z,36.53
2022-12-22T21:30:49.163Z,29.60
2022-12-22T21:33:16.435Z,43.53
2022-12-22T21:35:44.113Z,32.23
2022-12-22T21:38:16.372Z,32.87
2022-12-22T21:40:46.002Z,31.53
2022-12-22T21:43:13.616Z,26.00
2022-12-22T21:45:43.047Z,25.37
2022-12-22T21:48:12.506Z,24.80
2022-12-22T21:50:40.492Z,32.60
2022-12-22T21:53:08.072Z,32.20
2022-12-22T21:55:38.638Z,27.03
2022-12-22T21:58:07.648Z,30.13
2022-12-22T22:00:35.556Z,28.97
2022-12-22T22:03:04.284Z,35.67
2022-12-22T22:05:33.708Z,39.17
2022-12-22T22:08:01.940Z,33.40
2022-12-22T22:10:31.953Z,38.10
2022-12-22T22:13:00.396Z,34.73
2022-12-22T22:15:28.907Z,34.97
2022-12-22T22:18:01.338Z,29.63
2022-12-22T22:20:33.618Z,33.20
2022-12-22T22:23:02.055Z,32.90
2022-12-22T22:25:29.607Z,34.60
2022-12-22T22:27:59.811Z,26.07
2022-12-22T22:30:27.609Z,22.00
2022-12-22T22:32:56.041Z,23.73
2022-12-22T22:35:24.287Z,24.50
2022-12-22T22:37:51.770Z,24.47
2022-12-22T22:40:21.848Z,21.80
2022-12-22T22:42:59.686Z,20.40
2022-12-22T22:45:27.828Z,18.33
2022-12-22T22:47:55.167Z,17.07
2022-12-22T22:50:22.576Z,18.80
2022-12-22T22:52:50.273Z,19.30
2022-12-22T22:55:17.592Z,16.30
2022-12-22T22:57:44.844Z,14.93
2022-12-22T23:00:14.281Z,18.53
2022-12-22T23:02:42.393Z,17.57
2022-12-22T23:05:14.083Z,19.10
2022-12-22T23:07:44.260Z,18.00
2022-12-22T23:10:11.657Z,21.90
2022-12-22T23:12:38.906Z,16.80
2022-12-22T23:15:07.215Z,17.50
2022-12-22T23:17:34.494Z,14.10
2022-12-22T23:20:02.734Z,12.47
2022-12-22T23:22:30.010Z,18.97
2022-12-22T23:24:57.324Z,14.80
2022-12-22T23:27:24.598Z,12.20
2022-12-22T23:29:51.912Z,13.90
2022-12-22T23:32:19.210Z,14.83
2022-12-22T23:34:48.589Z,12.20
2022-12-22T23:37:19.696Z,14.87
2022-12-22T23:39:47.242Z,14.37
2022-12-22T23:42:14.494Z,14.70
2022-12-22T23:44:41.710Z,12.50
2022-12-22T23:47:09.074Z,15.27
2022-12-22T23:49:36.526Z,12.00
2022-12-22T23:52:03.905Z,10.87
2022-12-22T23:54:31.901Z,12.90
2022-12-22T23:56:59.164Z,11.70
2022-12-22T23:59:26.404Z,11.23
